createdAt,value
2022-10-18T00:01:09.919Z,13.05
2022-10-18T00:03:38.115Z,8.98
2022-10-18T00:06:09.358Z,10.75
2022-10-18T00:08:39.065Z,11.38
2022-10-18T00:11:06.867Z,9.93
2022-10-18T00:13:34.258Z,11.55
2022-10-18T00:16:04.402Z,10.50
2022-10-18T00:18:32.196Z,11.18
2022-10-18T00:21:05.530Z,10.73
2022-10-18T00:23:34.018Z,8.73
2022-10-18T00:26:16.465Z,13.73
2022-10-18T00:28:45.131Z,14.85
2022-10-18T00:31:19.313Z,13.73
2022-10-18T00:33:54.265Z,24.70
2022-10-18T00:36:23.679Z,14.40
2022-10-18T00:38:51.250Z,15.82
2022-10-18T00:41:21.767Z,18.85
2022-10-18T00:43:54.976Z,20.90
2022-10-18T00:46:23.547Z,13.25
2022-10-18T00:48:51.678Z,8.52
2022-10-18T00:51:21.299Z,14.15
2022-10-18T00:53:49.170Z,9.73
2022-10-18T00:56:17.282Z,9.02
2022-10-18T00:58:46.935Z,8.43
2022-10-18T01:01:14.447Z,11.30
2022-10-18T01:03:42.646Z,14.38
2022-10-18T01:06:10.128Z,8.13
2022-10-18T01:11:32.365Z,10.70
2022-10-18T01:14:05.133Z,11.63
2022-10-18T01:16:48.802Z,11.70
2022-10-18T01:19:35.910Z,12.60
2022-10-18T01:25:06.894Z,9.88
2022-10-18T01:27:57.398Z,16.85
2022-10-18T01:30:27.393Z,8.52
2022-10-18T01:32:59.776Z,8.10
2022-10-18T01:35:39.697Z,10.98
2022-10-18T01:38:11.495Z,15.52
2022-10-18T01:40:42.407Z,10.05
2022-10-18T01:43:10.691Z,11.27
2022-10-18T01:45:37.931Z,11.50
2022-10-18T01:48:07.442Z,9.48
2022-10-18T01:50:35.570Z,9.02
2022-10-18T01:53:03.268Z,7.32
2022-10-18T01:55:53.007Z,7.65
2022-10-18T01:58:36.861Z,18.20
2022-10-18T02:03:44.504Z,10.35
2022-10-18T02:06:28.195Z,7.15
2022-10-18T02:09:11.217Z,8.60
2022-10-18T02:11:40.282Z,7.30
2022-10-18T02:14:14.832Z,7.07
2022-10-18T02:16:45.613Z,7.60
2022-10-18T02:19:34.267Z,12.65
2022-10-18T02:22:01.951Z,8.63
2022-10-18T02:24:51.264Z,9.23
2022-10-18T02:27:18.775Z,10.38
2022-10-18T02:29:46.673Z,11.98
2022-10-18T02:32:38.580Z,11.23
2022-10-18T02:35:19.611Z,12.02
2022-10-18T02:37:48.840Z,10.00
2022-10-18T02:40:16.739Z,9.45
2022-10-18T02:42:54.234Z,7.57
2022-10-18T02:45:22.058Z,8.60
2022-10-18T02:47:49.073Z,7.07
2022-10-18T02:50:16.212Z,10.35
2022-10-18T02:52:43.773Z,6.22
2022-10-18T02:55:11.381Z,14.85
2022-10-18T02:57:38.649Z,8.48
2022-10-18T03:00:07.383Z,7.75
2022-10-18T03:02:34.595Z,8.70
2022-10-18T03:05:01.988Z,6.97
2022-10-18T03:07:29.892Z,10.80
2022-10-18T03:09:57.451Z,6.05
2022-10-18T03:17:19.984Z,6.00
2022-10-18T03:19:47.440Z,7.32
2022-10-18T03:22:14.775Z,8.95
2022-10-18T03:24:42.391Z,7.50
2022-10-18T03:27:09.608Z,14.65
2022-10-18T03:29:37.096Z,10.23
2022-10-18T03:32:04.237Z,12.98
2022-10-18T03:34:31.385Z,8.30
2022-10-18T03:37:02.042Z,10.38
2022-10-18T03:39:32.016Z,8.23
2022-10-18T03:41:58.833Z,14.18
2022-10-18T03:44:26.174Z,10.13
2022-10-18T03:46:53.146Z,13.55
2022-10-18T03:49:20.830Z,13.07
2022-10-18T03:51:48.167Z,9.50
2022-10-18T03:54:15.545Z,13.40
2022-10-18T03:56:42.638Z,8.52
2022-10-18T03:59:09.909Z,11.18
2022-10-18T04:01:39.277Z,10.50
2022-10-18T04:04:06.664Z,7.30
2022-10-18T04:06:33.905Z,7.72
2022-10-18T04:09:02.297Z,15.68
2022-10-18T04:11:30.259Z,8.30
2022-10-18T04:13:57.836Z,11.10
2022-10-18T04:16:25.443Z,10.82
2022-10-18T04:18:53.061Z,11.60
2022-10-18T04:21:21.034Z,13.68
2022-10-18T04:23:49.031Z,8.32
2022-10-18T04:26:16.791Z,8.05
2022-10-18T04:28:44.952Z,11.93
2022-10-18T04:31:12.175Z,7.50
2022-10-18T04:33:39.266Z,6.07
2022-10-18T04:36:06.755Z,8.40
2022-10-18T04:38:34.475Z,9.65
2022-10-18T04:43:28.598Z,6.95
2022-10-18T04:48:23.138Z,10.35
2022-10-18T04:53:18.964Z,8.48
2022-10-18T04:55:50.524Z,8.35
2022-10-18T04:58:18.374Z,6.55
2022-10-18T05:00:45.918Z,9.05
2022-10-18T05:03:14.499Z,11.10
2022-10-18T05:06:02.851Z,9.50
2022-10-18T05:08:32.871Z,11.35
2022-10-18T05:13:38.839Z,11.75
2022-10-18T05:16:11.212Z,11.23
2022-10-18T05:18:38.668Z,6.40
2022-10-18T05:21:05.976Z,13.50
2022-10-18T05:23:33.028Z,8.77
2022-10-18T05:26:06.990Z,9.40
2022-10-18T05:28:40.186Z,9.70
2022-10-18T05:31:10.030Z,9.60
2022-10-18T05:33:37.254Z,12.00
2022-10-18T05:38:31.667Z,13.13
2022-10-18T05:40:59.817Z,13.98
2022-10-18T05:43:30.387Z,12.25
2022-10-18T05:45:57.581Z,10.75
2022-10-18T05:48:24.938Z,14.07
2022-10-18T05:50:52.278Z,12.05
2022-10-18T05:53:35.769Z,16.80
2022-10-18T05:56:04.895Z,9.98
2022-10-18T05:58:32.019Z,15.10
2022-10-18T06:01:03.506Z,11.68
2022-10-18T06:03:31.183Z,12.13
2022-10-18T06:06:06.953Z,11.82
2022-10-18T06:08:35.666Z,12.80
2022-10-18T06:11:11.529Z,17.20
2022-10-18T06:13:47.216Z,12.93
2022-10-18T06:16:16.520Z,14.27
2022-10-18T06:18:47.057Z,18.13
2022-10-18T06:21:14.278Z,12.02
2022-10-18T06:23:41.465Z,16.27
2022-10-18T06:26:11.331Z,13.82
2022-10-18T06:28:38.690Z,16.13
2022-10-18T06:33:34.605Z,12.27
2022-10-18T06:36:04.588Z,9.65
2022-10-18T06:38:31.892Z,16.73
2022-10-18T06:43:27.328Z,11.55
2022-10-18T06:45:54.708Z,12.55
2022-10-18T06:48:22.541Z,12.98
2022-10-18T06:50:57.679Z,17.40
2022-10-18T06:53:26.695Z,15.13
2022-10-18T06:55:58.924Z,16.40
2022-10-18T06:58:25.774Z,20.90
2022-10-18T07:00:52.662Z,17.02
2022-10-18T07:03:21.683Z,15.60
2022-10-18T07:05:49.844Z,21.45
2022-10-18T07:08:17.428Z,18.63
2022-10-18T07:13:32.018Z,17.90
2022-10-18T07:16:10.647Z,17.85
2022-10-18T07:18:44.857Z,20.23
2022-10-18T07:21:14.386Z,14.93
2022-10-18T07:23:43.097Z,18.70
2022-10-18T07:26:26.103Z,16.67
2022-10-18T07:29:02.168Z,16.63
2022-10-18T07:31:29.678Z,16.40
2022-10-18T07:36:24.462Z,16.85
2022-10-18T07:38:54.717Z,18.33
2022-10-18T07:41:22.409Z,27.65
2022-10-18T07:43:53.427Z,19.45
2022-10-18T07:46:22.364Z,25.52
2022-10-18T07:48:49.646Z,35.47
2022-10-18T07:51:17.551Z,28.55
2022-10-18T07:53:45.070Z,25.83
2022-10-18T07:56:20.764Z,40.65
2022-10-18T07:58:51.432Z,27.20
2022-10-18T08:01:19.342Z,35.17
2022-10-18T08:03:46.811Z,29.30
2022-10-18T08:06:16.145Z,29.17
2022-10-18T08:08:43.579Z,26.38
2022-10-18T08:11:14.836Z,30.60
2022-10-18T08:13:42.295Z,23.38
2022-10-18T08:16:14.442Z,38.42
2022-10-18T08:18:41.946Z,39.65
2022-10-18T08:21:10.924Z,37.72
2022-10-18T08:23:39.056Z,36.60
2022-10-18T08:26:10.171Z,41.58
2022-10-18T08:28:37.129Z,38.55
2022-10-18T08:31:10.347Z,44.20
2022-10-18T08:33:38.486Z,39.75
2022-10-18T08:36:07.212Z,39.28
2022-10-18T08:38:35.493Z,43.70
2022-10-18T08:41:37.557Z,40.80
2022-10-18T08:44:18.812Z,38.05
2022-10-18T08:46:58.716Z,40.60
2022-10-18T08:49:42.930Z,46.80
2022-10-18T08:52:21.051Z,48.72
2022-10-18T08:55:19.925Z,44.30
2022-10-18T08:57:48.690Z,55.05
2022-10-18T09:00:21.503Z,42.47
2022-10-18T09:03:00.677Z,42.65
2022-10-18T09:05:49.021Z,53.70
2022-10-18T09:08:36.094Z,50.58
2022-10-18T09:14:03.698Z,48.05
2022-10-18T09:16:44.178Z,50.80
2022-10-18T09:19:54.832Z,53.97
2022-10-18T09:22:46.282Z,49.58
2022-10-18T09:25:47.333Z,51.83
2022-10-18T09:28:26.965Z,61.45
2022-10-18T09:31:19.999Z,49.45
2022-10-18T09:34:05.647Z,48.47
2022-10-18T09:36:37.286Z,49.25
2022-10-18T09:39:32.118Z,48.45
2022-10-18T09:42:27.039Z,50.45
2022-10-18T09:45:02.812Z,42.55
2022-10-18T09:47:37.327Z,44.55
2022-10-18T09:50:21.580Z,41.92
2022-10-18T09:53:04.239Z,33.72
2022-10-18T09:55:38.466Z,41.83
2022-10-18T09:58:08.007Z,43.47
2022-10-18T10:00:43.379Z,39.45
2022-10-18T10:03:14.888Z,42.35
2022-10-18T10:05:43.396Z,49.35
2022-10-18T10:08:10.816Z,37.75
2022-10-18T10:10:46.600Z,53.25
2022-10-18T10:13:22.812Z,48.58
2022-10-18T10:16:01.057Z,40.95
2022-10-18T10:18:32.014Z,44.42
2022-10-18T10:21:07.714Z,38.22
2022-10-18T10:23:44.843Z,50.03
2022-10-18T10:26:38.970Z,48.70
2022-10-18T10:29:48.123Z,51.42
2022-10-18T10:32:18.325Z,39.80
2022-10-18T10:34:45.840Z,45.38
2022-10-18T10:40:17.723Z,38.95
2022-10-18T10:43:18.120Z,45.65
2022-10-18T10:46:02.983Z,40.60
2022-10-18T10:48:34.342Z,47.20
2022-10-18T10:51:10.066Z,42.55
2022-10-18T10:53:41.707Z,36.78
2022-10-18T10:56:28.745Z,38.88
2022-10-18T10:59:00.418Z,36.95
2022-10-18T11:01:32.888Z,33.00
2022-10-18T11:04:05.377Z,41.78
2022-10-18T11:06:38.528Z,36.25
2022-10-18T11:09:37.695Z,33.97
2022-10-18T11:12:23.433Z,43.80
2022-10-18T11:15:15.181Z,31.25
2022-10-18T11:17:57.749Z,36.08
2022-10-18T11:20:40.745Z,33.42
2022-10-18T11:23:16.220Z,31.60
2022-10-18T11:25:49.490Z,35.55
2022-10-18T11:28:32.509Z,28.45
2022-10-18T11:31:17.873Z,27.88
2022-10-18T11:34:20.230Z,30.80
2022-10-18T11:37:31.325Z,31.15
2022-10-18T11:40:13.964Z,26.25
2022-10-18T11:42:54.867Z,35.17
2022-10-18T11:45:39.707Z,41.13
2022-10-18T11:48:47.117Z,31.85
2022-10-18T11:52:03.255Z,26.85
2022-10-18T11:54:42.068Z,27.92
2022-10-18T11:57:47.575Z,31.73
2022-10-18T12:00:40.983Z,30.00
2022-10-18T12:03:46.022Z,18.65
2022-10-18T12:06:18.130Z,32.88
2022-10-18T12:08:57.336Z,24.08
2022-10-18T12:11:32.919Z,22.27
2022-10-18T12:14:07.853Z,30.02
2022-10-18T12:16:51.406Z,20.92
2022-10-18T12:19:28.436Z,18.20
2022-10-18T12:22:11.357Z,22.77
2022-10-18T12:24:42.315Z,18.05
2022-10-18T12:27:13.825Z,16.17
2022-10-18T12:29:58.809Z,18.90
2022-10-18T12:32:32.481Z,22.17
2022-10-18T12:35:16.343Z,20.75
2022-10-18T12:38:21.387Z,24.27
2022-10-18T12:40:54.701Z,14.95
2022-10-18T12:43:34.261Z,23.55
2022-10-18T12:46:02.664Z,8.80
2022-10-18T12:48:38.906Z,16.30
2022-10-18T12:51:13.189Z,16.80
2022-10-18T12:53:42.495Z,12.07
2022-10-18T12:56:27.770Z,19.73
2022-10-18T12:59:16.888Z,14.00
2022-10-18T13:01:53.285Z,21.58
2022-10-18T13:04:29.798Z,18.95
2022-10-18T13:07:05.450Z,17.27
2022-10-18T13:09:41.117Z,12.13
2022-10-18T13:12:14.078Z,15.27
2022-10-18T13:15:26.375Z,15.10
2022-10-18T13:18:02.723Z,16.58
2022-10-18T13:20:41.315Z,17.95
2022-10-18T13:23:39.383Z,13.07
2022-10-18T13:26:43.031Z,20.33
2022-10-18T13:29:28.283Z,8.80
2022-10-18T13:34:48.593Z,15.15
2022-10-18T13:37:16.099Z,14.13
2022-10-18T13:39:43.534Z,18.83
2022-10-18T13:42:16.408Z,10.25
2022-10-18T13:44:44.735Z,15.18
2022-10-18T13:47:33.278Z,15.15
2022-10-18T13:50:22.298Z,17.23
2022-10-18T13:53:24.790Z,11.32
2022-10-18T13:56:38.490Z,8.05
2022-10-18T13:59:30.736Z,8.68
2022-10-18T14:02:51.018Z,12.23
2022-10-18T14:05:32.665Z,5.63
2022-10-18T14:08:40.630Z,10.85
2022-10-18T14:11:16.647Z,14.68
2022-10-18T14:13:48.185Z,11.13
2022-10-18T14:16:47.991Z,5.82
2022-10-18T14:19:19.897Z,12.88
2022-10-18T14:21:58.165Z,9.73
2022-10-18T14:24:31.054Z,14.70
2022-10-18T14:27:21.471Z,9.27
2022-10-18T14:29:50.389Z,14.32
2022-10-18T14:32:27.971Z,10.63
2022-10-18T14:35:27.318Z,6.22
2022-10-18T14:37:44.287Z,8.63
2022-10-18T14:40:34.529Z,7.63
2022-10-18T14:43:04.593Z,6.30
2022-10-18T14:45:31.685Z,7.45
2022-10-18T14:48:15.521Z,4.35
2022-10-18T14:50:46.259Z,9.35
2022-10-18T14:53:25.351Z,7.05
2022-10-18T14:55:57.694Z,6.28
2022-10-18T14:58:24.638Z,3.40
2022-10-18T15:00:51.474Z,8.65
2022-10-18T15:03:20.514Z,7.88
2022-10-18T15:05:59.606Z,3.58
2022-10-18T15:08:40.920Z,5.90
2022-10-18T15:11:11.838Z,7.82
2022-10-18T15:13:54.232Z,7.20
2022-10-18T15:16:28.820Z,9.13
2022-10-18T15:19:02.654Z,6.70
2022-10-18T15:21:30.171Z,5.93
2022-10-18T15:24:26.240Z,8.02
2022-10-18T15:26:56.180Z,11.23
2022-10-18T15:29:24.814Z,5.47
2022-10-18T15:31:52.407Z,7.93
2022-10-18T15:36:51.098Z,8.32
2022-10-18T15:39:23.981Z,4.05
2022-10-18T15:41:56.234Z,8.02
2022-10-18T15:44:32.086Z,3.17
2022-10-18T15:47:20.331Z,1.63
2022-10-18T15:49:51.169Z,8.50
2022-10-18T15:52:21.350Z,5.40
2022-10-18T15:57:18.565Z,4.40
2022-10-18T16:00:03.813Z,3.78
2022-10-18T16:02:39.033Z,7.47
2022-10-18T16:05:06.281Z,3.28
2022-10-18T16:07:33.369Z,4.93
2022-10-18T16:10:00.495Z,9.82
2022-10-18T16:12:27.542Z,4.10
2022-10-18T16:14:55.085Z,10.10
2022-10-18T16:17:22.250Z,3.97
2022-10-18T16:19:49.133Z,9.30
2022-10-18T16:22:16.420Z,4.40
2022-10-18T16:24:43.569Z,5.22
2022-10-18T16:27:12.075Z,6.05
2022-10-18T16:29:41.359Z,13.15
2022-10-18T16:32:08.656Z,3.95
2022-10-18T16:34:35.531Z,5.25
2022-10-18T16:37:02.455Z,6.72
2022-10-18T16:39:34.659Z,8.55
2022-10-18T16:42:01.579Z,6.70
2022-10-18T16:44:28.446Z,5.80
2022-10-18T16:46:58.671Z,7.28
2022-10-18T16:49:26.598Z,4.90
2022-10-18T16:51:54.865Z,4.10
2022-10-18T16:54:21.769Z,2.80
2022-10-18T16:56:50.113Z,8.18
2022-10-18T16:59:27.324Z,8.38
2022-10-18T17:01:54.451Z,6.15
2022-10-18T17:04:21.509Z,5.78
2022-10-18T17:06:49.321Z,3.35
2022-10-18T17:09:16.586Z,2.63
2022-10-18T17:11:43.956Z,4.57
2022-10-18T17:14:11.060Z,2.63
2022-10-18T17:16:39.166Z,7.25
2022-10-18T17:19:11.338Z,4.45
2022-10-18T17:21:38.585Z,4.10
2022-10-18T17:24:06.322Z,4.32
2022-10-18T17:26:34.420Z,2.60
2022-10-18T17:29:05.625Z,4.88
2022-10-18T17:31:33.354Z,3.38
2022-10-18T17:36:31.075Z,2.67
2022-10-18T17:38:58.905Z,9.57
2022-10-18T17:41:26.646Z,3.85
2022-10-18T17:43:53.951Z,5.03
2022-10-18T17:46:21.207Z,5.88
2022-10-18T17:48:48.468Z,7.05
2022-10-18T17:51:17.137Z,5.88
2022-10-18T17:53:44.792Z,10.25
2022-10-18T17:56:13.143Z,7.00
2022-10-18T17:58:43.519Z,11.75
2022-10-18T18:01:13.618Z,13.98
2022-10-18T18:03:41.326Z,13.20
2022-10-18T18:08:44.604Z,6.20
2022-10-18T18:11:11.915Z,3.70
2022-10-18T18:13:39.352Z,16.48
2022-10-18T18:16:13.766Z,20.70
2022-10-18T18:18:41.321Z,17.08
2022-10-18T18:21:08.596Z,11.27
2022-10-18T18:23:35.828Z,7.40
2022-10-18T18:26:03.009Z,11.80
2022-10-18T18:28:30.389Z,10.27
2022-10-18T18:30:57.542Z,7.88
2022-10-18T18:33:24.455Z,11.43
2022-10-18T18:35:59.620Z,21.23
2022-10-18T18:38:26.435Z,10.70
2022-10-18T18:41:23.880Z,18.40
2022-10-18T18:44:02.463Z,14.85
2022-10-18T18:46:38.395Z,10.75
2022-10-18T18:49:06.883Z,21.63
2022-10-18T18:51:37.416Z,15.02
2022-10-18T18:54:04.952Z,16.48
2022-10-18T18:56:32.179Z,8.52
2022-10-18T18:59:00.263Z,7.82
2022-10-18T19:01:34.977Z,15.10
2022-10-18T19:04:03.054Z,17.70
2022-10-18T19:06:32.820Z,15.60
2022-10-18T19:09:04.887Z,15.32
2022-10-18T19:11:35.761Z,12.65
2022-10-18T19:14:03.763Z,18.13
2022-10-18T19:16:38.747Z,17.05
2022-10-18T19:19:22.450Z,20.08
2022-10-18T19:21:55.072Z,15.25
2022-10-18T19:24:25.780Z,17.05
2022-10-18T19:27:12.744Z,19.42
2022-10-18T19:29:40.880Z,22.35
2022-10-18T19:32:12.268Z,19.15
2022-10-18T19:34:39.718Z,38.33
2022-10-18T19:37:09.437Z,16.98
2022-10-18T19:39:36.620Z,22.77
2022-10-18T19:42:10.174Z,19.25
2022-10-18T19:44:37.823Z,22.55
2022-10-18T19:49:39.116Z,24.10
2022-10-18T19:52:06.467Z,22.67
2022-10-18T19:54:33.944Z,19.55
2022-10-18T19:57:01.796Z,17.42
2022-10-18T19:59:29.274Z,28.58
2022-10-18T20:01:56.592Z,24.33
2022-10-18T20:06:51.232Z,35.10
2022-10-18T20:09:21.453Z,33.53
2022-10-18T20:11:49.328Z,33.72
2022-10-18T20:14:16.689Z,27.05
2022-10-18T20:16:44.510Z,22.02
2022-10-18T20:24:09.427Z,19.02
2022-10-18T20:26:37.522Z,23.48
2022-10-18T20:29:05.362Z,24.02
2022-10-18T20:31:35.774Z,31.88
2022-10-18T20:34:06.104Z,17.02
2022-10-18T20:36:36.837Z,20.67
2022-10-18T20:39:05.808Z,17.95
2022-10-18T20:41:35.173Z,18.08
2022-10-18T20:44:07.042Z,16.48
2022-10-18T20:46:36.378Z,18.17
2022-10-18T20:49:05.177Z,17.90
2022-10-18T20:51:33.642Z,13.98
2022-10-18T20:54:02.362Z,19.50
2022-10-18T20:56:31.658Z,19.38
2022-10-18T20:58:58.715Z,18.42
2022-10-18T21:01:28.045Z,34.65
2022-10-18T21:03:57.723Z,20.63
2022-10-18T21:06:28.543Z,21.55
2022-10-18T21:09:05.310Z,25.33
2022-10-18T21:11:35.825Z,17.13
2022-10-18T21:14:04.530Z,15.98
2022-10-18T21:16:34.854Z,22.95
2022-10-18T21:19:09.683Z,13.45
2022-10-18T21:21:36.765Z,25.60
2022-10-18T21:24:07.089Z,32.65
2022-10-18T21:26:35.750Z,26.20
2022-10-18T21:29:03.506Z,26.58
2022-10-18T21:31:33.261Z,29.50
2022-10-18T21:34:03.662Z,37.42
2022-10-18T21:36:32.233Z,19.48
2022-10-18T21:38:59.741Z,18.30
2022-10-18T21:41:26.999Z,15.45
2022-10-18T21:43:58.360Z,24.88
2022-10-18T21:46:28.066Z,14.05
2022-10-18T21:48:57.466Z,20.08
2022-10-18T21:51:26.809Z,32.97
2022-10-18T21:53:58.492Z,28.52
2022-10-18T21:56:33.377Z,23.73
2022-10-18T21:59:01.840Z,17.20
2022-10-18T22:01:34.446Z,19.88
2022-10-18T22:04:04.523Z,18.55
2022-10-18T22:09:04.242Z,21.73
2022-10-18T22:11:44.214Z,25.42
2022-10-18T22:14:11.566Z,27.95
2022-10-18T22:16:38.901Z,13.98
2022-10-18T22:19:07.047Z,13.82
2022-10-18T22:21:34.815Z,16.52
2022-10-18T22:26:36.856Z,18.50
2022-10-18T22:29:11.377Z,12.27
2022-10-18T22:31:41.149Z,12.00
2022-10-18T22:34:14.958Z,11.55
2022-10-18T22:36:42.472Z,10.48
2022-10-18T22:39:10.790Z,10.50
2022-10-18T22:41:37.774Z,23.55
2022-10-18T22:44:05.111Z,16.15
2022-10-18T22:46:33.134Z,10.05
2022-10-18T22:49:00.667Z,9.13
2022-10-18T22:51:27.664Z,11.77
2022-10-18T22:53:54.620Z,16.10
2022-10-18T22:56:23.416Z,16.67
2022-10-18T22:58:50.913Z,8.45
2022-10-18T23:01:20.619Z,20.83
2022-10-18T23:03:51.788Z,13.80
2022-10-18T23:06:25.278Z,18.33
2022-10-18T23:08:54.045Z,5.88
2022-10-18T23:11:23.877Z,14.75
2022-10-18T23:13:51.250Z,19.55
2022-10-18T23:16:18.648Z,15.75
2022-10-18T23:18:53.490Z,11.35
2022-10-18T23:21:21.159Z,8.52
2022-10-18T23:23:48.344Z,19.40
2022-10-18T23:26:19.045Z,11.45
2022-10-18T23:28:48.485Z,24.30
2022-10-18T23:31:18.954Z,13.55
2022-10-18T23:33:48.021Z,14.32
2022-10-18T23:36:15.652Z,15.10
2022-10-18T23:38:44.303Z,14.45
2022-10-18T23:41:13.185Z,6.75
2022-10-18T23:43:40.445Z,11.35
2022-10-18T23:46:08.120Z,10.98
2022-10-18T23:48:35.062Z,6.55
2022-10-18T23:51:02.696Z,7.07
2022-10-18T23:53:30.331Z,10.57
2022-10-18T23:56:01.689Z,6.05
2022-10-18T23:58:31.635Z,12.77
